createdAt,value
2022-10-26T00:01:54.296Z,10.60
2022-10-26T00:06:56.860Z,11.73
2022-10-26T00:11:59.308Z,13.33
2022-10-26T00:17:01.977Z,11.63
2022-10-26T00:22:04.464Z,11.93
2022-10-26T00:27:06.898Z,13.40
2022-10-26T00:32:09.458Z,12.00
2022-10-26T00:37:11.884Z,10.90
2022-10-26T00:42:21.276Z,11.10
2022-10-26T00:47:28.196Z,10.20
2022-10-26T00:52:30.934Z,10.30
2022-10-26T00:57:33.881Z,14.70
2022-10-26T01:02:36.484Z,11.53
2022-10-26T01:07:39.917Z,11.50
2022-10-26T01:12:42.814Z,11.30
2022-10-26T01:17:56.267Z,10.33
2022-10-26T01:23:22.269Z,11.80
2022-10-26T01:28:57.292Z,10.10
2022-10-26T01:34:21.265Z,11.07
2022-10-26T01:39:28.793Z,12.10
2022-10-26T01:44:41.944Z,11.60
2022-10-26T01:49:53.297Z,11.43
2022-10-26T01:55:34.403Z,11.60
2022-10-26T02:00:42.393Z,12.10
2022-10-26T02:06:08.431Z,11.87
2022-10-26T02:11:41.302Z,11.67
2022-10-26T02:16:49.782Z,11.37
2022-10-26T02:21:59.360Z,11.37
2022-10-26T02:27:04.567Z,10.77
2022-10-26T02:32:09.097Z,11.13
2022-10-26T02:37:13.699Z,11.17
2022-10-26T02:42:16.500Z,10.67
2022-10-26T02:47:20.164Z,9.87
2022-10-26T02:52:27.968Z,11.07
2022-10-26T02:57:41.144Z,10.13
2022-10-26T03:02:59.800Z,10.17
2022-10-26T03:08:02.565Z,11.50
2022-10-26T03:13:04.994Z,12.77
2022-10-26T03:18:08.033Z,10.77
2022-10-26T03:23:10.920Z,10.70
2022-10-26T03:28:14.238Z,10.80
2022-10-26T03:33:16.707Z,11.43
2022-10-26T03:38:19.296Z,10.13
2022-10-26T03:43:21.761Z,11.63
2022-10-26T03:48:24.266Z,9.67
2022-10-26T03:53:27.341Z,10.77
2022-10-26T03:58:30.203Z,12.43
2022-10-26T04:03:32.672Z,10.90
2022-10-26T04:08:35.365Z,10.37
2022-10-26T04:13:37.867Z,12.70
2022-10-26T04:18:40.365Z,13.00
2022-10-26T04:23:42.962Z,16.60
2022-10-26T04:28:48.277Z,10.10
2022-10-26T04:33:51.052Z,10.13
2022-10-26T04:38:53.645Z,15.17
2022-10-26T04:43:56.202Z,15.67
2022-10-26T04:48:58.827Z,14.47
2022-10-26T04:54:01.797Z,13.93
2022-10-26T04:59:04.690Z,13.70
2022-10-26T05:04:07.215Z,11.03
2022-10-26T05:09:12.770Z,13.13
2022-10-26T05:14:15.145Z,12.17
2022-10-26T05:19:17.610Z,13.00
2022-10-26T05:24:20.221Z,14.63
2022-10-26T05:29:22.647Z,12.77
2022-10-26T05:34:24.965Z,10.40
2022-10-26T05:39:27.407Z,10.50
2022-10-26T05:44:29.878Z,9.93
2022-10-26T05:49:32.253Z,10.00
2022-10-26T05:54:34.658Z,9.93
2022-10-26T05:59:37.270Z,9.80
2022-10-26T06:04:50.776Z,10.03
2022-10-26T06:09:53.590Z,11.10
2022-10-26T06:14:56.406Z,12.17
2022-10-26T06:20:22.152Z,11.37
2022-10-26T06:25:45.589Z,11.60
2022-10-26T06:30:48.075Z,11.17
2022-10-26T07:06:33.396Z,16.93
2022-10-26T07:23:38.100Z,14.53
2022-10-26T07:28:41.820Z,13.07
2022-10-26T07:33:50.755Z,13.03
2022-10-26T07:38:54.065Z,13.20
2022-10-26T07:43:59.924Z,12.73
2022-10-26T07:49:02.514Z,12.93
2022-10-26T07:54:57.815Z,13.40
2022-10-26T08:20:51.872Z,12.10
2022-10-26T08:32:16.071Z,12.57
2022-10-26T08:37:18.502Z,14.47
2022-10-26T08:42:31.852Z,14.17
2022-10-26T08:47:43.859Z,12.77
2022-10-26T08:52:52.408Z,12.97
2022-10-26T08:57:56.014Z,13.20
2022-10-26T09:02:58.526Z,13.37
2022-10-26T09:08:31.438Z,15.30
2022-10-26T09:13:59.014Z,13.87
2022-10-26T09:25:59.920Z,15.77
2022-10-26T09:31:17.244Z,17.60
2022-10-26T09:36:24.367Z,17.07
2022-10-26T09:41:43.896Z,19.77
2022-10-26T09:47:45.431Z,19.33
2022-10-26T09:52:51.219Z,18.13
2022-10-26T09:58:01.527Z,17.33
2022-10-26T10:03:24.642Z,17.70
2022-10-26T10:08:27.938Z,17.73
2022-10-26T10:13:33.168Z,15.83
2022-10-26T10:18:36.640Z,16.90
2022-10-26T10:23:52.240Z,17.67
2022-10-26T10:29:16.787Z,17.87
2022-10-26T10:34:22.301Z,17.60
2022-10-26T10:39:29.291Z,17.43
2022-10-26T10:44:33.783Z,17.23
2022-10-26T10:49:36.155Z,20.10
2022-10-26T10:54:40.000Z,17.40
2022-10-26T11:00:03.798Z,16.53
2022-10-26T11:05:38.182Z,16.83
2022-10-26T11:10:47.564Z,17.50
2022-10-26T11:15:55.566Z,17.30
2022-10-26T11:21:13.100Z,19.37
2022-10-26T11:26:33.377Z,20.47
2022-10-26T11:31:41.852Z,20.60
2022-10-26T11:36:49.976Z,19.20
2022-10-26T11:42:01.486Z,17.20
2022-10-26T11:47:19.652Z,16.93
2022-10-26T11:53:04.087Z,16.67
2022-10-26T11:58:06.589Z,15.23
2022-10-26T12:03:12.459Z,16.83
2022-10-26T12:08:49.074Z,15.97
2022-10-26T12:13:58.727Z,16.87
2022-10-26T12:19:21.180Z,14.80
2022-10-26T12:24:26.622Z,13.77
2022-10-26T12:29:31.221Z,13.50
2022-10-26T12:34:46.332Z,11.87
2022-10-26T12:39:48.728Z,12.43
2022-10-26T12:44:53.747Z,11.83
2022-10-26T12:50:07.967Z,13.00
2022-10-26T12:55:13.282Z,12.00
2022-10-26T13:00:18.962Z,13.47
2022-10-26T13:05:29.950Z,11.43
2022-10-26T13:10:33.103Z,9.10
2022-10-26T13:15:40.936Z,9.43
2022-10-26T13:21:09.360Z,7.03
2022-10-26T13:26:17.383Z,7.13
2022-10-26T13:31:28.979Z,6.73
2022-10-26T13:37:09.694Z,8.10
2022-10-26T13:42:21.582Z,6.57
2022-10-26T13:48:01.337Z,6.97
2022-10-26T13:53:15.109Z,6.30
2022-10-26T13:58:34.691Z,7.20
2022-10-26T14:03:38.085Z,14.80
2022-10-26T14:08:42.665Z,9.30
2022-10-26T14:13:47.020Z,9.00
2022-10-26T14:18:49.793Z,8.97
2022-10-26T14:23:58.296Z,8.07
2022-10-26T14:29:01.692Z,15.37
2022-10-26T14:34:05.497Z,8.53
2022-10-26T14:39:16.361Z,6.67
2022-10-26T14:44:22.314Z,8.13
2022-10-26T14:49:27.778Z,8.03
2022-10-26T14:54:30.577Z,25.77
2022-10-26T14:59:33.170Z,66.40
2022-10-26T15:04:38.133Z,14.87
2022-10-26T15:09:43.457Z,12.40
2022-10-26T15:14:46.035Z,13.80
2022-10-26T15:19:49.329Z,23.10
2022-10-26T15:24:55.331Z,25.17
2022-10-26T15:30:30.144Z,15.47
2022-10-26T15:35:32.668Z,19.40
2022-10-26T15:40:37.072Z,19.43
2022-10-26T15:59:33.775Z,19.13
2022-10-26T16:04:36.156Z,15.17
2022-10-26T16:09:39.148Z,15.43
2022-10-26T16:15:03.868Z,13.97
2022-10-26T16:20:08.862Z,14.80
2022-10-26T16:25:11.604Z,12.87
2022-10-26T16:30:15.025Z,20.30
2022-10-26T16:35:17.426Z,23.53
2022-10-26T16:40:19.890Z,39.00
2022-10-26T16:45:22.237Z,37.53
2022-10-26T16:50:24.716Z,36.33
2022-10-26T16:55:27.082Z,44.10
2022-10-26T17:00:29.546Z,40.57
2022-10-26T17:05:31.967Z,38.00
2022-10-26T17:10:34.398Z,36.93
2022-10-26T17:15:36.777Z,37.13
2022-10-26T17:20:39.329Z,35.50
2022-10-26T17:25:41.764Z,35.20
2022-10-26T17:30:44.814Z,38.87
2022-10-26T17:35:53.306Z,38.00
2022-10-26T17:41:01.287Z,36.10
2022-10-26T17:46:08.274Z,36.13
2022-10-26T17:51:13.590Z,42.40
2022-10-26T17:56:24.199Z,37.07
2022-10-26T18:01:27.783Z,37.77
2022-10-26T18:06:30.223Z,39.63
2022-10-26T18:11:32.612Z,45.17
2022-10-26T18:16:35.050Z,42.97
2022-10-26T18:21:38.104Z,38.50
2022-10-26T18:26:40.648Z,39.33
2022-10-26T18:31:45.047Z,38.20
2022-10-26T18:36:47.454Z,45.47
2022-10-26T18:41:49.838Z,78.63
2022-10-26T18:46:52.371Z,75.23
2022-10-26T18:51:54.896Z,82.90
2022-10-26T18:56:57.420Z,86.33
2022-10-26T19:01:59.948Z,89.33
2022-10-26T19:07:02.434Z,96.37
2022-10-26T19:12:04.885Z,100.03
2022-10-26T19:17:07.375Z,96.13
2022-10-26T19:22:11.398Z,91.87
2022-10-26T19:27:13.962Z,72.20
2022-10-26T19:32:16.430Z,64.37
2022-10-26T19:37:18.855Z,72.33
2022-10-26T19:42:21.268Z,58.77
2022-10-26T19:47:24.010Z,52.30
2022-10-26T19:52:26.404Z,47.97
2022-10-26T19:57:28.778Z,42.33
2022-10-26T20:02:31.200Z,50.57
2022-10-26T20:07:33.571Z,56.80
2022-10-26T20:12:35.964Z,50.60
2022-10-26T20:17:38.379Z,54.50
2022-10-26T20:22:40.973Z,44.67
2022-10-26T20:27:43.392Z,45.70
2022-10-26T20:32:45.787Z,47.80
2022-10-26T20:37:48.919Z,46.87
2022-10-26T20:42:52.715Z,49.90
2022-10-26T20:47:55.912Z,64.27
2022-10-26T20:53:04.429Z,95.77
2022-10-26T20:58:41.826Z,101.70
2022-10-26T21:03:44.241Z,101.47
2022-10-26T21:08:49.959Z,86.03
2022-10-26T21:13:53.746Z,94.23
2022-10-26T21:18:56.145Z,80.90
2022-10-26T21:23:58.891Z,77.40
2022-10-26T21:29:01.411Z,62.83
2022-10-26T21:34:04.644Z,69.93
2022-10-26T21:39:06.997Z,64.37
2022-10-26T21:44:23.161Z,54.77
2022-10-26T21:49:32.502Z,55.20
2022-10-26T21:54:34.937Z,58.47
2022-10-26T21:59:37.438Z,47.97
2022-10-26T22:04:39.845Z,51.90
2022-10-26T22:09:55.125Z,44.47
2022-10-26T22:15:05.001Z,44.83
2022-10-26T22:20:09.012Z,38.97
2022-10-26T22:25:11.542Z,41.73
2022-10-26T22:30:14.257Z,38.23
2022-10-26T22:35:28.981Z,37.57
2022-10-26T22:40:31.976Z,39.83
2022-10-26T22:45:34.306Z,54.60
2022-10-26T22:50:38.123Z,30.77
2022-10-26T22:55:45.722Z,29.80
2022-10-26T23:00:48.041Z,34.80
2022-10-26T23:05:50.362Z,36.90
2022-10-26T23:10:52.963Z,27.50
2022-10-26T23:15:56.025Z,27.37
2022-10-26T23:20:58.328Z,27.20
2022-10-26T23:26:05.902Z,27.17
2022-10-26T23:31:12.903Z,29.73
2022-10-26T23:36:15.175Z,30.53
2022-10-26T23:41:17.623Z,30.30
2022-10-26T23:46:19.995Z,27.47
2022-10-26T23:51:22.354Z,29.63
2022-10-26T23:56:24.652Z,24.27
